sensor_id;sensor_type;location;lat;lon;timestamp;temperature;humidity
72106;SHT30;59975;47.646;18.318;2023-01-09T00:02:03;8.13;81.89
72106;SHT30;59975;47.646;18.318;2023-01-09T00:04:28;8.14;82.00
72106;SHT30;59975;47.646;18.318;2023-01-09T00:06:54;8.16;81.81
72106;SHT30;59975;47.646;18.318;2023-01-09T00:09:21;8.16;81.82
72106;SHT30;59975;47.646;18.318;2023-01-09T00:11:48;8.20;81.64
72106;SHT30;59975;47.646;18.318;2023-01-09T00:14:17;8.19;81.55
72106;SHT30;59975;47.646;18.318;2023-01-09T00:16:43;8.29;81.33
72106;SHT30;59975;47.646;18.318;2023-01-09T00:19:11;8.30;81.26
72106;SHT30;59975;47.646;18.318;2023-01-09T00:21:36;8.46;80.79
72106;SHT30;59975;47.646;18.318;2023-01-09T00:24:02;8.57;80.43
72106;SHT30;59975;47.646;18.318;2023-01-09T00:26:28;8.61;80.29
72106;SHT30;59975;47.646;18.318;2023-01-09T00:28:54;8.67;80.08
72106;SHT30;59975;47.646;18.318;2023-01-09T00:31:20;8.71;80.15
72106;SHT30;59975;47.646;18.318;2023-01-09T00:34:00;8.68;80.24
72106;SHT30;59975;47.646;18.318;2023-01-09T00:36:26;8.65;80.60
72106;SHT30;59975;47.646;18.318;2023-01-09T00:38:52;8.72;80.29
72106;SHT30;59975;47.646;18.318;2023-01-09T00:41:34;8.71;80.51
72106;SHT30;59975;47.646;18.318;2023-01-09T00:44:14;8.78;80.14
72106;SHT30;59975;47.646;18.318;2023-01-09T00:46:44;8.84;79.95
72106;SHT30;59975;47.646;18.318;2023-01-09T00:49:12;8.88;79.79
72106;SHT30;59975;47.646;18.318;2023-01-09T00:51:39;8.84;80.04
72106;SHT30;59975;47.646;18.318;2023-01-09T00:54:05;8.91;79.82
72106;SHT30;59975;47.646;18.318;2023-01-09T00:56:33;8.92;79.68
72106;SHT30;59975;47.646;18.318;2023-01-09T00:58:59;8.97;79.62
72106;SHT30;59975;47.646;18.318;2023-01-09T01:01:25;8.91;79.85
72106;SHT30;59975;47.646;18.318;2023-01-09T01:03:50;8.93;79.53
72106;SHT30;59975;47.646;18.318;2023-01-09T01:06:16;8.99;79.41
72106;SHT30;59975;47.646;18.318;2023-01-09T01:09:00;8.93;79.60
72106;SHT30;59975;47.646;18.318;2023-01-09T01:11:25;8.93;79.34
72106;SHT30;59975;47.646;18.318;2023-01-09T01:13:51;8.98;79.40
72106;SHT30;59975;47.646;18.318;2023-01-09T01:16:17;9.04;79.11
72106;SHT30;59975;47.646;18.318;2023-01-09T01:18:42;9.02;79.15
72106;SHT30;59975;47.646;18.318;2023-01-09T01:21:09;9.01;79.12
72106;SHT30;59975;47.646;18.318;2023-01-09T01:23:36;9.07;78.93
72106;SHT30;59975;47.646;18.318;2023-01-09T01:26:14;9.05;79.02
72106;SHT30;59975;47.646;18.318;2023-01-09T01:28:40;9.05;78.77
72106;SHT30;59975;47.646;18.318;2023-01-09T01:31:06;9.11;78.82
72106;SHT30;59975;47.646;18.318;2023-01-09T01:33:33;9.16;78.47
72106;SHT30;59975;47.646;18.318;2023-01-09T01:36:04;9.22;78.07
72106;SHT30;59975;47.646;18.318;2023-01-09T01:38:31;9.23;78.03
72106;SHT30;59975;47.646;18.318;2023-01-09T01:40:58;9.29;77.95
72106;SHT30;59975;47.646;18.318;2023-01-09T01:43:24;9.26;77.98
72106;SHT30;59975;47.646;18.318;2023-01-09T01:45:49;9.31;77.93
72106;SHT30;59975;47.646;18.318;2023-01-09T01:48:25;9.28;77.80
72106;SHT30;59975;47.646;18.318;2023-01-09T01:51:03;9.29;77.55
72106;SHT30;59975;47.646;18.318;2023-01-09T01:53:37;9.29;77.71
72106;SHT30;59975;47.646;18.318;2023-01-09T01:56:08;9.29;77.53
72106;SHT30;59975;47.646;18.318;2023-01-09T01:58:39;9.26;77.59
72106;SHT30;59975;47.646;18.318;2023-01-09T02:01:06;9.31;77.46
72106;SHT30;59975;47.646;18.318;2023-01-09T02:03:32;9.33;77.20
72106;SHT30;59975;47.646;18.318;2023-01-09T02:05:58;9.38;77.13
72106;SHT30;59975;47.646;18.318;2023-01-09T02:08:24;9.28;77.44
72106;SHT30;59975;47.646;18.318;2023-01-09T02:10:50;9.43;76.64
72106;SHT30;59975;47.646;18.318;2023-01-09T02:13:17;9.52;76.24
72106;SHT30;59975;47.646;18.318;2023-01-09T02:18:34;9.57;76.16
72106;SHT30;59975;47.646;18.318;2023-01-09T02:21:12;9.69;76.15
72106;SHT30;59975;47.646;18.318;2023-01-09T02:38:00;9.62;75.87
72106;SHT30;59975;47.646;18.318;2023-01-09T02:40:34;9.66;75.72
72106;SHT30;59975;47.646;18.318;2023-01-09T02:43:01;9.74;75.39
72106;SHT30;59975;47.646;18.318;2023-01-09T02:45:27;9.76;75.19
72106;SHT30;59975;47.646;18.318;2023-01-09T02:47:54;9.73;75.58
72106;SHT30;59975;47.646;18.318;2023-01-09T02:50:29;9.82;75.29
72106;SHT30;59975;47.646;18.318;2023-01-09T03:03:33;9.62;75.72
72106;SHT30;59975;47.646;18.318;2023-01-09T03:08:41;9.73;75.21
72106;SHT30;59975;47.646;18.318;2023-01-09T03:11:07;9.72;75.07
72106;SHT30;59975;47.646;18.318;2023-01-09T03:13:50;9.70;75.03
72106;SHT30;59975;47.646;18.318;2023-01-09T03:16:25;9.67;74.91
72106;SHT30;59975;47.646;18.318;2023-01-09T03:18:54;9.76;74.92
72106;SHT30;59975;47.646;18.318;2023-01-09T03:21:21;9.76;74.69
72106;SHT30;59975;47.646;18.318;2023-01-09T03:23:52;9.79;74.47
72106;SHT30;59975;47.646;18.318;2023-01-09T03:26:18;9.80;74.27
72106;SHT30;59975;47.646;18.318;2023-01-09T03:28:44;9.73;74.47
72106;SHT30;59975;47.646;18.318;2023-01-09T03:31:10;9.74;74.49
72106;SHT30;59975;47.646;18.318;2023-01-09T03:33:35;9.73;74.76
72106;SHT30;59975;47.646;18.318;2023-01-09T03:36:01;9.72;74.71
72106;SHT30;59975;47.646;18.318;2023-01-09T03:38:26;9.67;74.70
72106;SHT30;59975;47.646;18.318;2023-01-09T03:40:52;9.72;74.74
72106;SHT30;59975;47.646;18.318;2023-01-09T03:43:17;9.70;74.55
72106;SHT30;59975;47.646;18.318;2023-01-09T03:45:43;9.73;74.54
72106;SHT30;59975;47.646;18.318;2023-01-09T03:48:08;9.72;74.88
72106;SHT30;59975;47.646;18.318;2023-01-09T03:50:34;9.76;74.48
72106;SHT30;59975;47.646;18.318;2023-01-09T03:52:59;9.76;74.33
72106;SHT30;59975;47.646;18.318;2023-01-09T03:55:25;9.73;74.68
72106;SHT30;59975;47.646;18.318;2023-01-09T03:57:50;9.70;74.79
72106;SHT30;59975;47.646;18.318;2023-01-09T04:00:18;9.69;74.69
72106;SHT30;59975;47.646;18.318;2023-01-09T04:02:44;9.77;74.41
72106;SHT30;59975;47.646;18.318;2023-01-09T04:05:09;9.70;74.43
72106;SHT30;59975;47.646;18.318;2023-01-09T04:07:35;9.72;74.46
72106;SHT30;59975;47.646;18.318;2023-01-09T04:10:01;9.76;74.44
72106;SHT30;59975;47.646;18.318;2023-01-09T04:12:26;9.74;74.60
72106;SHT30;59975;47.646;18.318;2023-01-09T04:14:52;9.70;74.78
72106;SHT30;59975;47.646;18.318;2023-01-09T04:17:17;9.72;74.62
72106;SHT30;59975;47.646;18.318;2023-01-09T04:19:43;9.73;74.53
72106;SHT30;59975;47.646;18.318;2023-01-09T04:22:08;9.67;74.68
72106;SHT30;59975;47.646;18.318;2023-01-09T04:24:34;9.69;74.58
72106;SHT30;59975;47.646;18.318;2023-01-09T04:26:59;9.72;74.52
72106;SHT30;59975;47.646;18.318;2023-01-09T04:29:25;9.72;74.45
72106;SHT30;59975;47.646;18.318;2023-01-09T04:31:50;9.72;74.35
72106;SHT30;59975;47.646;18.318;2023-01-09T04:34:16;9.67;74.40
72106;SHT30;59975;47.646;18.318;2023-01-09T04:36:41;9.73;74.13
72106;SHT30;59975;47.646;18.318;2023-01-09T04:39:07;9.72;74.19
72106;SHT30;59975;47.646;18.318;2023-01-09T04:41:33;9.76;74.21
72106;SHT30;59975;47.646;18.318;2023-01-09T04:44:18;9.86;73.61
72106;SHT30;59975;47.646;18.318;2023-01-09T04:46:44;9.77;73.99
72106;SHT30;59975;47.646;18.318;2023-01-09T04:49:09;9.76;73.72
72106;SHT30;59975;47.646;18.318;2023-01-09T04:51:35;9.77;73.77
72106;SHT30;59975;47.646;18.318;2023-01-09T04:54:00;9.74;73.77
72106;SHT30;59975;47.646;18.318;2023-01-09T04:56:26;9.72;74.22
72106;SHT30;59975;47.646;18.318;2023-01-09T04:58:51;9.77;73.65
72106;SHT30;59975;47.646;18.318;2023-01-09T05:01:17;9.72;73.82
72106;SHT30;59975;47.646;18.318;2023-01-09T05:03:42;9.72;73.82
72106;SHT30;59975;47.646;18.318;2023-01-09T05:06:08;9.74;73.60
72106;SHT30;59975;47.646;18.318;2023-01-09T05:08:33;9.72;73.81
72106;SHT30;59975;47.646;18.318;2023-01-09T05:10:59;9.67;73.72
72106;SHT30;59975;47.646;18.318;2023-01-09T05:13:25;9.62;74.11
72106;SHT30;59975;47.646;18.318;2023-01-09T05:15:50;9.64;74.02
72106;SHT30;59975;47.646;18.318;2023-01-09T05:18:15;9.67;73.99
72106;SHT30;59975;47.646;18.318;2023-01-09T05:20:41;9.72;73.91
72106;SHT30;59975;47.646;18.318;2023-01-09T05:23:06;9.70;73.79
72106;SHT30;59975;47.646;18.318;2023-01-09T05:25:32;9.69;73.84
72106;SHT30;59975;47.646;18.318;2023-01-09T05:27:57;9.72;73.85
72106;SHT30;59975;47.646;18.318;2023-01-09T05:30:25;9.69;74.20
72106;SHT30;59975;47.646;18.318;2023-01-09T05:32:51;9.69;73.65
72106;SHT30;59975;47.646;18.318;2023-01-09T05:35:16;9.73;73.93
72106;SHT30;59975;47.646;18.318;2023-01-09T05:37:42;9.72;73.81
72106;SHT30;59975;47.646;18.318;2023-01-09T05:40:08;9.63;73.89
72106;SHT30;59975;47.646;18.318;2023-01-09T05:42:33;9.60;74.08
72106;SHT30;59975;47.646;18.318;2023-01-09T05:44:59;9.69;73.88
72106;SHT30;59975;47.646;18.318;2023-01-09T05:47:24;9.67;73.86
72106;SHT30;59975;47.646;18.318;2023-01-09T05:49:50;9.70;73.96
72106;SHT30;59975;47.646;18.318;2023-01-09T05:52:15;9.70;73.75
72106;SHT30;59975;47.646;18.318;2023-01-09T05:54:41;9.77;73.40
72106;SHT30;59975;47.646;18.318;2023-01-09T05:57:06;9.84;73.50
72106;SHT30;59975;47.646;18.318;2023-01-09T05:59:32;9.83;73.47
72106;SHT30;59975;47.646;18.318;2023-01-09T06:01:58;9.89;73.68
72106;SHT30;59975;47.646;18.318;2023-01-09T06:04:23;9.91;73.85
72106;SHT30;59975;47.646;18.318;2023-01-09T06:06:49;9.89;74.07
72106;SHT30;59975;47.646;18.318;2023-01-09T06:09:15;9.94;73.74
72106;SHT30;59975;47.646;18.318;2023-01-09T06:45:17;9.53;78.90
72106;SHT30;59975;47.646;18.318;2023-01-09T06:47:43;9.52;79.20
72106;SHT30;59975;47.646;18.318;2023-01-09T06:50:23;9.52;79.45
72106;SHT30;59975;47.646;18.318;2023-01-09T06:52:51;9.43;80.13
72106;SHT30;59975;47.646;18.318;2023-01-09T06:55:19;9.39;79.66
72106;SHT30;59975;47.646;18.318;2023-01-09T06:58:16;9.32;80.16
72106;SHT30;59975;47.646;18.318;2023-01-09T07:00:49;9.26;80.70
72106;SHT30;59975;47.646;18.318;2023-01-09T07:06:21;9.11;81.48
72106;SHT30;59975;47.646;18.318;2023-01-09T07:09:09;9.12;81.76
72106;SHT30;59975;47.646;18.318;2023-01-09T07:11:41;9.05;82.86
72106;SHT30;59975;47.646;18.318;2023-01-09T07:14:18;8.97;83.16
72106;SHT30;59975;47.646;18.318;2023-01-09T07:16:57;8.88;83.55
72106;SHT30;59975;47.646;18.318;2023-01-09T07:19:26;8.85;84.19
72106;SHT30;59975;47.646;18.318;2023-01-09T07:21:52;8.74;84.82
72106;SHT30;59975;47.646;18.318;2023-01-09T07:24:20;8.72;85.28
72106;SHT30;59975;47.646;18.318;2023-01-09T07:26:49;8.77;85.44
72106;SHT30;59975;47.646;18.318;2023-01-09T07:29:16;8.67;86.04
72106;SHT30;59975;47.646;18.318;2023-01-09T07:31:41;8.64;86.38
72106;SHT30;59975;47.646;18.318;2023-01-09T07:34:07;8.58;86.21
72106;SHT30;59975;47.646;18.318;2023-01-09T07:36:35;8.57;86.51
72106;SHT30;59975;47.646;18.318;2023-01-09T07:39:03;8.54;86.22
72106;SHT30;59975;47.646;18.318;2023-01-09T07:49:08;8.48;87.16
72106;SHT30;59975;47.646;18.318;2023-01-09T07:51:35;8.38;87.40
72106;SHT30;59975;47.646;18.318;2023-01-09T07:54:10;8.40;87.27
72106;SHT30;59975;47.646;18.318;2023-01-09T10:48:52;8.69;87.44
72106;SHT30;59975;47.646;18.318;2023-01-09T10:51:47;8.75;87.06
72106;SHT30;59975;47.646;18.318;2023-01-09T10:54:40;8.69;86.71
72106;SHT30;59975;47.646;18.318;2023-01-09T11:01:00;8.56;87.09
72106;SHT30;59975;47.646;18.318;2023-01-09T11:03:27;8.53;86.98
72106;SHT30;59975;47.646;18.318;2023-01-09T11:20:27;8.24;88.20
72106;SHT30;59975;47.646;18.318;2023-01-09T11:22:48;8.27;87.93
72106;SHT30;59975;47.646;18.318;2023-01-09T11:32:24;8.36;87.76
72106;SHT30;59975;47.646;18.318;2023-01-09T11:39:14;8.46;87.39
72106;SHT30;59975;47.646;18.318;2023-01-09T11:42:04;8.48;87.43
72106;SHT30;59975;47.646;18.318;2023-01-09T11:45:20;8.44;87.62
72106;SHT30;59975;47.646;18.318;2023-01-09T11:47:52;8.34;88.06
72106;SHT30;59975;47.646;18.318;2023-01-09T11:52:43;8.22;88.39
72106;SHT30;59975;47.646;18.318;2023-01-09T11:55:13;8.24;88.54
72106;SHT30;59975;47.646;18.318;2023-01-09T11:57:48;8.20;88.83
72106;SHT30;59975;47.646;18.318;2023-01-09T12:00:29;8.09;89.48
72106;SHT30;59975;47.646;18.318;2023-01-09T12:03:45;8.12;89.49
72106;SHT30;59975;47.646;18.318;2023-01-09T12:15:21;8.30;89.53
72106;SHT30;59975;47.646;18.318;2023-01-09T12:18:02;8.16;89.49
72106;SHT30;59975;47.646;18.318;2023-01-09T12:21:06;7.99;89.83
72106;SHT30;59975;47.646;18.318;2023-01-09T12:23:42;8.16;89.87
72106;SHT30;59975;47.646;18.318;2023-01-09T12:29:39;8.19;89.11
72106;SHT30;59975;47.646;18.318;2023-01-09T12:32:16;8.13;88.98
72106;SHT30;59975;47.646;18.318;2023-01-09T12:34:51;8.16;89.66
72106;SHT30;59975;47.646;18.318;2023-01-09T12:48:27;8.10;91.50
72106;SHT30;59975;47.646;18.318;2023-01-09T12:51:16;8.10;91.68
72106;SHT30;59975;47.646;18.318;2023-01-09T12:56:34;8.19;91.36
72106;SHT30;59975;47.646;18.318;2023-01-09T12:59:09;8.13;90.87
72106;SHT30;59975;47.646;18.318;2023-01-09T13:01:44;8.17;90.90
72106;SHT30;59975;47.646;18.318;2023-01-09T13:04:30;8.26;91.20
72106;SHT30;59975;47.646;18.318;2023-01-09T13:07:00;8.22;91.27
72106;SHT30;59975;47.646;18.318;2023-01-09T13:09:42;8.29;91.10
72106;SHT30;59975;47.646;18.318;2023-01-09T13:12:13;8.33;90.89
72106;SHT30;59975;47.646;18.318;2023-01-09T13:17:29;8.32;90.71
72106;SHT30;59975;47.646;18.318;2023-01-09T13:19:55;8.32;90.85
72106;SHT30;59975;47.646;18.318;2023-01-09T13:22:26;8.40;90.96
72106;SHT30;59975;47.646;18.318;2023-01-09T13:27:33;8.40;90.41
72106;SHT30;59975;47.646;18.318;2023-01-09T13:30:42;8.23;90.15
72106;SHT30;59975;47.646;18.318;2023-01-09T13:33:20;8.12;90.80
72106;SHT30;59975;47.646;18.318;2023-01-09T13:35:55;8.19;91.23
72106;SHT30;59975;47.646;18.318;2023-01-09T13:38:26;8.23;91.26
72106;SHT30;59975;47.646;18.318;2023-01-09T13:41:11;8.17;91.36
72106;SHT30;59975;47.646;18.318;2023-01-09T13:44:04;8.19;91.61
72106;SHT30;59975;47.646;18.318;2023-01-09T13:46:52;8.23;91.80
72106;SHT30;59975;47.646;18.318;2023-01-09T14:08:02;8.20;91.55
72106;SHT30;59975;47.646;18.318;2023-01-09T14:10:48;8.22;91.24
72106;SHT30;59975;47.646;18.318;2023-01-09T14:13:21;8.20;91.50
72106;SHT30;59975;47.646;18.318;2023-01-09T14:15:49;8.23;91.81
72106;SHT30;59975;47.646;18.318;2023-01-09T14:18:17;8.19;91.75
72106;SHT30;59975;47.646;18.318;2023-01-09T14:20:51;8.23;91.25
72106;SHT30;59975;47.646;18.318;2023-01-09T14:23:50;8.23;91.20
72106;SHT30;59975;47.646;18.318;2023-01-09T14:26:40;8.27;91.48
72106;SHT30;59975;47.646;18.318;2023-01-09T14:37:34;8.22;91.95
72106;SHT30;59975;47.646;18.318;2023-01-09T14:40:00;8.23;92.08
72106;SHT30;59975;47.646;18.318;2023-01-09T14:42:28;8.24;91.95
72106;SHT30;59975;47.646;18.318;2023-01-09T14:45:16;8.30;91.47
72106;SHT30;59975;47.646;18.318;2023-01-09T14:47:47;8.19;92.01
72106;SHT30;59975;47.646;18.318;2023-01-09T14:50:33;8.17;92.23
72106;SHT30;59975;47.646;18.318;2023-01-09T14:53:32;8.22;92.14
72106;SHT30;59975;47.646;18.318;2023-01-09T14:56:01;8.26;91.68
72106;SHT30;59975;47.646;18.318;2023-01-09T14:58:30;8.29;91.51
72106;SHT30;59975;47.646;18.318;2023-01-09T15:01:06;8.26;91.41
72106;SHT30;59975;47.646;18.318;2023-01-09T15:06:11;8.14;91.93
72106;SHT30;59975;47.646;18.318;2023-01-09T15:08:38;8.19;91.95
72106;SHT30;59975;47.646;18.318;2023-01-09T15:11:03;8.17;91.87
72106;SHT30;59975;47.646;18.318;2023-01-09T15:13:39;8.14;91.76
72106;SHT30;59975;47.646;18.318;2023-01-09T15:16:06;8.14;91.95
72106;SHT30;59975;47.646;18.318;2023-01-09T15:18:40;8.09;92.04
72106;SHT30;59975;47.646;18.318;2023-01-09T15:21:16;8.09;91.20
72106;SHT30;59975;47.646;18.318;2023-01-09T15:23:42;8.03;91.19
72106;SHT30;59975;47.646;18.318;2023-01-09T15:28:42;8.00;91.09
72106;SHT30;59975;47.646;18.318;2023-01-09T15:31:15;8.02;91.33
72106;SHT30;59975;47.646;18.318;2023-01-09T15:33:44;8.03;91.31
72106;SHT30;59975;47.646;18.318;2023-01-09T15:36:22;8.09;90.04
72106;SHT30;59975;47.646;18.318;2023-01-09T15:38:49;8.10;89.35
72106;SHT30;59975;47.646;18.318;2023-01-09T15:41:18;7.92;89.99
72106;SHT30;59975;47.646;18.318;2023-01-09T15:44:12;7.93;90.62
72106;SHT30;59975;47.646;18.318;2023-01-09T15:46:39;7.81;90.08
72106;SHT30;59975;47.646;18.318;2023-01-09T15:49:09;7.81;90.07
72106;SHT30;59975;47.646;18.318;2023-01-09T15:51:37;7.82;90.36
72106;SHT30;59975;47.646;18.318;2023-01-09T15:54:04;7.73;90.65
72106;SHT30;59975;47.646;18.318;2023-01-09T15:56:30;7.65;91.10
72106;SHT30;59975;47.646;18.318;2023-01-09T15:58:58;7.61;91.10
72106;SHT30;59975;47.646;18.318;2023-01-09T16:01:34;7.56;91.40
72106;SHT30;59975;47.646;18.318;2023-01-09T16:06:51;7.50;91.23
72106;SHT30;59975;47.646;18.318;2023-01-09T16:09:27;7.42;91.34
72106;SHT30;59975;47.646;18.318;2023-01-09T16:11:59;7.38;91.26
72106;SHT30;59975;47.646;18.318;2023-01-09T16:14:34;7.32;91.77
72106;SHT30;59975;47.646;18.318;2023-01-09T16:17:04;7.34;91.72
72106;SHT30;59975;47.646;18.318;2023-01-09T16:19:54;7.30;91.80
72106;SHT30;59975;47.646;18.318;2023-01-09T16:22:22;7.24;91.96
72106;SHT30;59975;47.646;18.318;2023-01-09T16:24:49;7.17;92.04
72106;SHT30;59975;47.646;18.318;2023-01-09T16:29:53;7.12;92.06
72106;SHT30;59975;47.646;18.318;2023-01-09T16:32:23;7.10;92.10
72106;SHT30;59975;47.646;18.318;2023-01-09T16:34:54;7.07;92.02
72106;SHT30;59975;47.646;18.318;2023-01-09T16:37:24;7.05;92.21
72106;SHT30;59975;47.646;18.318;2023-01-09T16:42:42;7.03;92.17
72106;SHT30;59975;47.646;18.318;2023-01-09T16:45:30;6.98;92.37
72106;SHT30;59975;47.646;18.318;2023-01-09T16:47:56;6.96;92.58
72106;SHT30;59975;47.646;18.318;2023-01-09T16:50:22;6.94;93.15
72106;SHT30;59975;47.646;18.318;2023-01-09T16:52:49;6.84;93.61
72106;SHT30;59975;47.646;18.318;2023-01-09T16:55:15;6.80;94.00
72106;SHT30;59975;47.646;18.318;2023-01-09T16:57:40;6.79;94.17
72106;SHT30;59975;47.646;18.318;2023-01-09T17:00:12;6.79;94.42
72106;SHT30;59975;47.646;18.318;2023-01-09T17:02:38;6.76;94.28
72106;SHT30;59975;47.646;18.318;2023-01-09T17:05:04;6.79;94.39
72106;SHT30;59975;47.646;18.318;2023-01-09T17:07:30;6.73;94.18
72106;SHT30;59975;47.646;18.318;2023-01-09T17:09:55;6.73;94.35
72106;SHT30;59975;47.646;18.318;2023-01-09T17:12:22;6.77;94.07
72106;SHT30;59975;47.646;18.318;2023-01-09T17:14:51;6.77;93.99
72106;SHT30;59975;47.646;18.318;2023-01-09T17:17:17;6.80;93.96
72106;SHT30;59975;47.646;18.318;2023-01-09T17:19:44;6.76;93.92
72106;SHT30;59975;47.646;18.318;2023-01-09T17:22:13;6.80;94.03
72106;SHT30;59975;47.646;18.318;2023-01-09T17:24:38;6.76;93.82
72106;SHT30;59975;47.646;18.318;2023-01-09T17:27:34;6.77;93.86
72106;SHT30;59975;47.646;18.318;2023-01-09T17:30:19;6.75;94.08
72106;SHT30;59975;47.646;18.318;2023-01-09T17:32:46;6.75;94.29
72106;SHT30;59975;47.646;18.318;2023-01-09T17:35:12;6.79;94.34
72106;SHT30;59975;47.646;18.318;2023-01-09T17:37:38;6.81;94.01
72106;SHT30;59975;47.646;18.318;2023-01-09T17:40:17;6.79;93.68
72106;SHT30;59975;47.646;18.318;2023-01-09T17:42:43;6.75;93.88
72106;SHT30;59975;47.646;18.318;2023-01-09T17:45:09;6.77;93.94
72106;SHT30;59975;47.646;18.318;2023-01-09T17:47:35;6.77;93.85
72106;SHT30;59975;47.646;18.318;2023-01-09T17:50:00;6.72;93.77
72106;SHT30;59975;47.646;18.318;2023-01-09T17:52:25;6.73;94.03
72106;SHT30;59975;47.646;18.318;2023-01-09T17:54:52;6.76;94.13
72106;SHT30;59975;47.646;18.318;2023-01-09T17:57:18;6.76;93.71
72106;SHT30;59975;47.646;18.318;2023-01-09T17:59:43;6.76;93.46
72106;SHT30;59975;47.646;18.318;2023-01-09T18:02:17;6.75;93.45
72106;SHT30;59975;47.646;18.318;2023-01-09T18:04:43;6.75;93.53
72106;SHT30;59975;47.646;18.318;2023-01-09T18:07:13;6.70;93.43
72106;SHT30;59975;47.646;18.318;2023-01-09T18:09:38;6.67;93.67
72106;SHT30;59975;47.646;18.318;2023-01-09T18:12:04;6.70;93.71
72106;SHT30;59975;47.646;18.318;2023-01-09T18:14:29;6.69;93.62
72106;SHT30;59975;47.646;18.318;2023-01-09T18:16:55;6.72;93.26
72106;SHT30;59975;47.646;18.318;2023-01-09T18:19:20;6.69;93.30
72106;SHT30;59975;47.646;18.318;2023-01-09T18:21:46;6.72;93.28
72106;SHT30;59975;47.646;18.318;2023-01-09T18:24:11;6.70;93.20
72106;SHT30;59975;47.646;18.318;2023-01-09T18:26:37;6.73;93.57
72106;SHT30;59975;47.646;18.318;2023-01-09T18:29:02;6.70;93.28
72106;SHT30;59975;47.646;18.318;2023-01-09T18:31:28;6.67;93.43
72106;SHT30;59975;47.646;18.318;2023-01-09T18:33:56;6.65;93.32
72106;SHT30;59975;47.646;18.318;2023-01-09T18:36:26;6.62;93.51
72106;SHT30;59975;47.646;18.318;2023-01-09T18:38:59;6.62;93.71
72106;SHT30;59975;47.646;18.318;2023-01-09T18:41:25;6.59;93.73
72106;SHT30;59975;47.646;18.318;2023-01-09T18:43:52;6.60;93.74
72106;SHT30;59975;47.646;18.318;2023-01-09T18:46:18;6.63;93.55
72106;SHT30;59975;47.646;18.318;2023-01-09T18:48:52;6.56;93.56
72106;SHT30;59975;47.646;18.318;2023-01-09T18:51:18;6.57;93.55
72106;SHT30;59975;47.646;18.318;2023-01-09T18:53:44;6.57;93.79
72106;SHT30;59975;47.646;18.318;2023-01-09T18:56:09;6.53;93.93
72106;SHT30;59975;47.646;18.318;2023-01-09T18:58:35;6.54;93.93
72106;SHT30;59975;47.646;18.318;2023-01-09T19:01:00;6.54;93.84
72106;SHT30;59975;47.646;18.318;2023-01-09T19:03:27;6.49;93.93
72106;SHT30;59975;47.646;18.318;2023-01-09T19:05:52;6.49;94.24
72106;SHT30;59975;47.646;18.318;2023-01-09T19:08:18;6.40;94.37
72106;SHT30;59975;47.646;18.318;2023-01-09T19:10:49;6.37;94.65
72106;SHT30;59975;47.646;18.318;2023-01-09T19:13:15;6.39;94.69
72106;SHT30;59975;47.646;18.318;2023-01-09T19:15:40;6.42;94.65
72106;SHT30;59975;47.646;18.318;2023-01-09T19:18:06;6.37;94.65
72106;SHT30;59975;47.646;18.318;2023-01-09T19:20:31;6.40;94.57
72106;SHT30;59975;47.646;18.318;2023-01-09T19:22:56;6.36;94.68
72106;SHT30;59975;47.646;18.318;2023-01-09T19:25:22;6.37;94.74
72106;SHT30;59975;47.646;18.318;2023-01-09T19:27:47;6.37;94.72
72106;SHT30;59975;47.646;18.318;2023-01-09T19:30:13;6.35;94.74
72106;SHT30;59975;47.646;18.318;2023-01-09T19:32:38;6.33;94.94
72106;SHT30;59975;47.646;18.318;2023-01-09T19:35:04;6.35;95.08
72106;SHT30;59975;47.646;18.318;2023-01-09T19:37:30;6.32;95.09
72106;SHT30;59975;47.646;18.318;2023-01-09T19:39:55;6.30;95.10
72106;SHT30;59975;47.646;18.318;2023-01-09T19:42:20;6.32;95.16
72106;SHT30;59975;47.646;18.318;2023-01-09T19:44:46;6.29;95.23
72106;SHT30;59975;47.646;18.318;2023-01-09T19:47:11;6.32;95.31
72106;SHT30;59975;47.646;18.318;2023-01-09T19:49:38;6.32;95.28
72106;SHT30;59975;47.646;18.318;2023-01-09T19:52:04;6.24;95.30
72106;SHT30;59975;47.646;18.318;2023-01-09T19:54:29;6.29;95.45
72106;SHT30;59975;47.646;18.318;2023-01-09T19:56:56;6.29;95.54
72106;SHT30;59975;47.646;18.318;2023-01-09T19:59:21;6.30;95.56
72106;SHT30;59975;47.646;18.318;2023-01-09T20:01:47;6.33;95.56
72106;SHT30;59975;47.646;18.318;2023-01-09T20:04:12;6.29;95.48
72106;SHT30;59975;47.646;18.318;2023-01-09T20:06:43;6.30;95.43
72106;SHT30;59975;47.646;18.318;2023-01-09T20:09:10;6.32;95.48
72106;SHT30;59975;47.646;18.318;2023-01-09T20:11:37;6.29;95.46
72106;SHT30;59975;47.646;18.318;2023-01-09T20:14:05;6.32;95.52
72106;SHT30;59975;47.646;18.318;2023-01-09T20:16:31;6.35;95.48
72106;SHT30;59975;47.646;18.318;2023-01-09T20:18:59;6.33;95.36
72106;SHT30;59975;47.646;18.318;2023-01-09T20:21:26;6.36;95.40
72106;SHT30;59975;47.646;18.318;2023-01-09T20:23:53;6.35;95.37
72106;SHT30;59975;47.646;18.318;2023-01-09T20:26:19;6.35;95.35
72106;SHT30;59975;47.646;18.318;2023-01-09T20:28:46;6.33;95.31
72106;SHT30;59975;47.646;18.318;2023-01-09T20:31:15;6.37;95.38
72106;SHT30;59975;47.646;18.318;2023-01-09T20:33:45;6.35;95.44
72106;SHT30;59975;47.646;18.318;2023-01-09T20:36:11;6.33;95.17
72106;SHT30;59975;47.646;18.318;2023-01-09T20:38:37;6.32;95.04
72106;SHT30;59975;47.646;18.318;2023-01-09T20:43:32;6.30;94.73
72106;SHT30;59975;47.646;18.318;2023-01-09T20:46:02;6.35;94.69
72106;SHT30;59975;47.646;18.318;2023-01-09T20:48:28;6.35;94.63
72106;SHT30;59975;47.646;18.318;2023-01-09T20:50:54;6.25;94.65
72106;SHT30;59975;47.646;18.318;2023-01-09T20:53:19;6.32;94.88
72106;SHT30;59975;47.646;18.318;2023-01-09T20:55:45;6.30;94.93
72106;SHT30;59975;47.646;18.318;2023-01-09T20:58:10;6.29;94.90
72106;SHT30;59975;47.646;18.318;2023-01-09T21:00:36;6.33;94.97
72106;SHT30;59975;47.646;18.318;2023-01-09T21:03:01;6.32;94.85
72106;SHT30;59975;47.646;18.318;2023-01-09T21:05:28;6.30;94.83
72106;SHT30;59975;47.646;18.318;2023-01-09T21:07:54;6.32;94.84
72106;SHT30;59975;47.646;18.318;2023-01-09T21:10:19;6.25;95.00
72106;SHT30;59975;47.646;18.318;2023-01-09T21:12:45;6.24;95.17
72106;SHT30;59975;47.646;18.318;2023-01-09T21:15:10;6.28;95.25
72106;SHT30;59975;47.646;18.318;2023-01-09T21:17:39;6.28;95.29
72106;SHT30;59975;47.646;18.318;2023-01-09T21:20:08;6.28;95.31
72106;SHT30;59975;47.646;18.318;2023-01-09T21:22:34;6.26;95.18
72106;SHT30;59975;47.646;18.318;2023-01-09T21:25:00;6.25;95.15
72106;SHT30;59975;47.646;18.318;2023-01-09T21:27:26;6.29;95.18
72106;SHT30;59975;47.646;18.318;2023-01-09T21:29:56;6.28;95.18
72106;SHT30;59975;47.646;18.318;2023-01-09T21:32:21;6.24;95.18
72106;SHT30;59975;47.646;18.318;2023-01-09T21:34:47;6.22;95.46
72106;SHT30;59975;47.646;18.318;2023-01-09T21:37:12;6.21;95.60
72106;SHT30;59975;47.646;18.318;2023-01-09T21:39:39;6.18;95.65